Map

Track Data

SID SEASON NUMBER BASIN SUBBASIN NAME ISO_TIME NATURE LAT LON WMO_WIND WMO_PRES WMO_AGENCY TRACK_TYPE DIST2LAND LANDFALL IFLAG USA_AGENCY USA_ATCF_ID USA_LAT USA_LON USA_RECORD USA_STATUS USA_WIND USA_PRES USA_SSHS USA_R34_NE USA_R34_SE USA_R34_SW USA_R34_NW USA_R50_NE USA_R50_SE USA_R50_SW USA_R50_NW USA_R64_NE USA_R64_SE USA_R64_SW USA_R64_NW USA_POCI USA_ROCI USA_RMW USA_EYE TOKYO_LAT TOKYO_LON TOKYO_GRADE TOKYO_WIND TOKYO_PRES TOKYO_R50_DIR TOKYO_R50_LONG TOKYO_R50_SHORT TOKYO_R30_DIR TOKYO_R30_LONG TOKYO_R30_SHORT TOKYO_LAND CMA_LAT CMA_LON CMA_CAT CMA_WIND CMA_PRES HKO_LAT HKO_LON HKO_CAT HKO_WIND HKO_PRES NEWDELHI_LAT NEWDELHI_LON NEWDELHI_GRADE NEWDELHI_WIND NEWDELHI_PRES NEWDELHI_CI NEWDELHI_DP NEWDELHI_POCI REUNION_LAT REUNION_LON REUNION_TYPE REUNION_WIND REUNION_PRES REUNION_TNUM REUNION_CI REUNION_RMW REUNION_R34_NE REUNION_R34_SE REUNION_R34_SW REUNION_R34_NW REUNION_R50_NE REUNION_R50_SE REUNION_R50_SW REUNION_R50_NW REUNION_R64_NE REUNION_R64_SE REUNION_R64_SW REUNION_R64_NW BOM_LAT BOM_LON BOM_TYPE BOM_WIND BOM_PRES BOM_TNUM BOM_CI BOM_RMW BOM_R34_NE BOM_R34_SE BOM_R34_SW BOM_R34_NW BOM_R50_NE BOM_R50_SE BOM_R50_SW BOM_R50_NW BOM_R64_NE BOM_R64_SE BOM_R64_SW BOM_R64_NW BOM_ROCI BOM_POCI BOM_EYE BOM_POS_METHOD BOM_PRES_METHOD NADI_LAT NADI_LON NADI_CAT NADI_WIND NADI_PRES WELLINGTON_LAT WELLINGTON_LON WELLINGTON_WIND WELLINGTON_PRES DS824_LAT DS824_LON DS824_STAGE DS824_WIND DS824_PRES TD9636_LAT TD9636_LON TD9636_STAGE TD9636_WIND TD9636_PRES TD9635_LAT TD9635_LON TD9635_WIND TD9635_PRES TD9635_ROCI NEUMANN_LAT NEUMANN_LON NEUMANN_CLASS NEUMANN_WIND NEUMANN_PRES MLC_LAT MLC_LON MLC_CLASS MLC_WIND MLC_PRES USA_GUST BOM_GUST BOM_GUST_PER REUNION_GUST REUNION_GUST_PER USA_SEAHGT USA_SEARAD_NE USA_SEARAD_SE USA_SEARAD_SW USA_SEARAD_NW STORM_SPEED STORM_DIR
1975269N19276 1975 101 NA CS NOT_NAMED 1975-09-25 12:00:00 TS 19.0000 -84.0000 20 hurdat_atl main 296 296 O_____________ hurdat_atl AL161975 19.0000 -84.0000 TD 20 -1 2 276
1975269N19276 1975 101 NA CS NOT_NAMED 1975-09-25 15:00:00 TS 19.0100 -84.0900 main 300 300 P_____________ AL161975 19.0100 -84.0900 TD 22 -1 2 270
1975269N19276 1975 101 NA CS NOT_NAMED 1975-09-25 18:00:00 TS 19.0000 -84.2000 25 hurdat_atl main 305 305 O_____________ hurdat_atl AL161975 19.0000 -84.2000 TD 25 -1 2 258
1975269N19276 1975 101 NA CS NOT_NAMED 1975-09-25 21:00:00 TS 18.9575 -84.3425 main 310 310 P_____________ AL161975 18.9575 -84.3425 TD 25 -1 3 250
1975269N19276 1975 101 NA CS NOT_NAMED 1975-09-26 00:00:00 TS 18.9000 -84.5000 25 hurdat_atl main 311 301 O_____________ hurdat_atl AL161975 18.9000 -84.5000 TD 25 -1 3 249
1975269N19276 1975 101 NA CS NOT_NAMED 1975-09-26 03:00:00 TS 18.8425 -84.6575 main 294 284 P_____________ AL161975 18.8425 -84.6575 TD 25 -1 3 250
1975269N19276 1975 101 NA CS NOT_NAMED 1975-09-26 06:00:00 TS 18.8000 -84.8000 25 hurdat_atl main 284 274 O_____________ hurdat_atl AL161975 18.8000 -84.8000 TD 25 -1 2 261
1975269N19276 1975 101 NA CS NOT_NAMED 1975-09-26 09:00:00 TS 18.8074 -84.8924 main 274 263 P_____________ AL161975 18.8074 -84.8924 TD 25 -1 2 270
1975269N19276 1975 101 NA CS NOT_NAMED 1975-09-26 12:00:00 TS 18.8000 -85.0000 25 hurdat_atl main 263 247 O_____________ hurdat_atl AL161975 18.8000 -85.0000 TD 25 -1 3 251
1975269N19276 1975 101 NA CS NOT_NAMED 1975-09-26 15:00:00 TS 18.7150 -85.1850 main 247 230 P_____________ AL161975 18.7150 -85.1850 TD 25 -1 4 242
1975269N19276 1975 101 NA CS NOT_NAMED 1975-09-26 18:00:00 TS 18.6000 -85.4000 25 hurdat_atl main 230 214 O_____________ hurdat_atl AL161975 18.6000 -85.4000 TD 25 -1 5 242
1975269N19276 1975 101 NA CS NOT_NAMED 1975-09-26 21:00:00 TS 18.5000 -85.6075 main 214 197 P_____________ AL161975 18.5000 -85.6075 TD 25 -1 4 242
1975269N19276 1975 101 NA CS NOT_NAMED 1975-09-27 00:00:00 TS 18.4000 -85.8000 25 hurdat_atl main 197 187 O_____________ hurdat_atl AL161975 18.4000 -85.8000 TD 25 -1 4 238
1975269N19276 1975 101 NA CS NOT_NAMED 1975-09-27 03:00:00 TS 18.2999 -85.9500 main 191 174 P_____________ AL161975 18.2999 -85.9500 TD 25 -1 3 235
1975269N19276 1975 101 NA CS NOT_NAMED 1975-09-27 06:00:00 TS 18.2000 -86.1000 25 hurdat_atl main 174 158 O_____________ hurdat_atl AL161975 18.2000 -86.1000 TD 25 -1 4 237
1975269N19276 1975 101 NA CS NOT_NAMED 1975-09-27 09:00:00 TS 18.0850 -86.3000 main 158 139 P_____________ AL161975 18.0850 -86.3000 TD 25 -1 4 242
1975269N19276 1975 101 NA CS NOT_NAMED 1975-09-27 12:00:00 TS 18.0000 -86.5000 25 hurdat_atl main 139 118 O_____________ hurdat_atl AL161975 18.0000 -86.5000 TD 25 -1 4 254
1975269N19276 1975 101 NA CS NOT_NAMED 1975-09-27 15:00:00 TS 17.9850 -86.6650 main 118 108 P_____________ AL161975 17.9850 -86.6650 TD 25 -1 3 270
1975269N19276 1975 101 NA CS NOT_NAMED 1975-09-27 18:00:00 TS 18.0000 -86.8000 25 hurdat_atl main 108 97 O_____________ hurdat_atl AL161975 18.0000 -86.8000 TD 25 -1 2 274
1975269N19276 1975 101 NA CS NOT_NAMED 1975-09-27 21:00:00 TS 18.0000 -86.9075 main 97 87 P_____________ AL161975 18.0000 -86.9075 TD 25 -1 2 270
1975269N19276 1975 101 NA CS NOT_NAMED 1975-09-28 00:00:00 TS 18.0000 -87.0000 25 hurdat_atl main 87 77 O_____________ hurdat_atl AL161975 18.0000 -87.0000 TD 25 -1 2 270
1975269N19276 1975 101 NA CS NOT_NAMED 1975-09-28 03:00:00 TS 18.0000 -87.0925 main 77 67 P_____________ AL161975 18.0000 -87.0925 TD 25 -1 2 270
1975269N19276 1975 101 NA CS NOT_NAMED 1975-09-28 06:00:00 TS 18.0000 -87.2000 25 hurdat_atl main 67 57 O_____________ hurdat_atl AL161975 18.0000 -87.2000 TD 25 -1 2 270
1975269N19276 1975 101 NA CS NOT_NAMED 1975-09-28 09:00:00 TS 18.0000 -87.3425 main 57 38 P_____________ AL161975 18.0000 -87.3425 TD 25 -1 3 270
1975269N19276 1975 101 NA CS NOT_NAMED 1975-09-28 12:00:00 TS 18.0000 -87.5000 25 hurdat_atl main 38 30 O_____________ hurdat_atl AL161975 18.0000 -87.5000 TD 25 -1 3 270
1975269N19276 1975 101 NA CS NOT_NAMED 1975-09-28 15:00:00 TS 18.0000 -87.6575 main 24 22 P_____________ AL161975 18.0000 -87.6575 TD 25 -1 3 270
1975269N19276 1975 101 NA CS NOT_NAMED 1975-09-28 18:00:00 TS 18.0000 -87.8000 25 hurdat_atl main 22 22 O_____________ hurdat_atl AL161975 18.0000 -87.8000 TD 25 -1 2 270
1975269N19276 1975 101 NA CS NOT_NAMED 1975-09-28 21:00:00 TS 18.0000 -87.9075 main 23 15 P_____________ AL161975 18.0000 -87.9075 TD 25 -1 2 270
1975269N19276 1975 101 NA CS NOT_NAMED 1975-09-29 00:00:00 TS 18.0000 -88.0000 25 hurdat_atl main 15 10 O_____________ hurdat_atl AL161975 18.0000 -88.0000 TD 25 -1 2 270
1975269N19276 1975 101 NA CS NOT_NAMED 1975-09-29 03:00:00 TS 18.0000 -88.0925 main 10 0 P_____________ AL161975 18.0000 -88.0925 TD 22 -1 2 270
1975269N19276 1975 101 NA CS NOT_NAMED 1975-09-29 06:00:00 TS 18.0000 -88.2000 20 hurdat_atl main 0 0 O_____________ hurdat_atl AL161975 18.0000 -88.2000 TD 20 -1 2 270
1975269N19276 1975 101 NA NA NOT_NAMED 1975-09-29 09:00:00 TS 18.0000 -88.3400 main 0 0 P_____________ AL161975 18.0000 -88.3400 TD -1 3 270
1975269N19276 1975 101 NA NA NOT_NAMED 1975-09-29 12:00:00 TS 18.0000 -88.5000 hurdat_atl main 0 O_____________ hurdat_atl AL161975 18.0000 -88.5000 TD -1 3 270

About IBTrACS Database

This database is a web-friendly format of International Best Track Archive for Climate Stewardship (IBTrACS), a global best track data archive curated by NOAA dating back to 1842.

Updated: 2021-10-08